Steuben, ME (04680)

3:13 PM EDT on October 24, 2014 (GMT -0400)
Pigeon Hill | Change Station
CLOSE
Current Station
Personal Weather Station
Location: Steuben, ME
Elevation: 217 ft
Nearby Weather Stations

Elev 217 ft 44.46 °N, 67.89 °W | Updated 22 seconds ago

Overcast
Overcast
46.9 °F
Feels Like 45 °F
N
4.0
Wind Variable Wind from North
Gusts 14.0 mph

Today
High -- | Low -- °F
--% Chance of Precip.
Yesterday
High -- | Low -- °F
Precip. -- in
6:58 AM 5:32 PM
New Moon, 1% visible
Pressure 29.60 in
Visibility 10.0 miles
Clouds Overcast 1100 ft
Windchill 45 °F
Dew Point 46 °F
Humidity 98%
Rainfall 0.09 in
Snow Depth Not available.
UV 1 out of 12
Pollen .10 out of 12
Air Quality Not available.
Flu Activity Sporadic
METAR KBHB 241855Z AUTO 36009G15KT 10SM OVC011 09/09 A2960 RMK AO1

More Conditions Fewer Conditions

Pressure 29.60 in
Visibility 10.0 miles
Clouds Overcast 1100 ft
Windchill 45 °F
Dew Point 46 °F
Humidity 98%
Rainfall 0.09 in
Snow Depth Not available.
UV 1 out of 12
Pollen .10 out of 12
Air Quality Not available.
Flu Activity Sporadic
METAR KBHB 241855Z AUTO 36009G15KT 10SM OVC011 09/09 A2960 RMK AO1

More Conditions Fewer Conditions

10-Day Weather Forecast

Almanac

Astronomy

Oct. 24, 2014 Rise Set
Actual Time 6:58 AM EDT 5:32 PM EDT
Civil Twilight 6:28 AM EDT 6:02 PM EDT
Nautical Twilight 5:54 AM EDT 6:36 PM EDT
Astronomical Twilight 5:20 AM EDT 7:10 PM EDT
Moon 7:35 AM EDT 6:08 PM EDT
Length of Visible Light 11h 33m
Length of Day
10h 34m
Tomorrow will be 2m 53s shorter.
New Moon, 1% of the Moon is Illuminated
Today
New Moon
Oct 30
First Quarter
Nov 6
Full
Nov 14
Last Quarter
Nov 22
New

Today's Extremes

State Highs State Lows

Community

WunderPhotos

Upload Photos

1,764,638 photos uploaded!

Nearby

Air Quality

  Air Quality AQ Index Pollutant
Friday Good
OZONE
Friday Good
PM2.5
Saturday Good
OZONE
Saturday Good
PM2.5
Sunday Good
OZONE
Sunday Good
PM2.5
Monday Good
OZONE
Monday Good
PM2.5
Tuesday Good
OZONE
Tuesday Good
PM2.5

Snow Depth

Station Depth Elevation
No new snow has been reported.

Earthquake Activity

City Distance Mag. Time & Date
No recent earthquake activity has been reported nearby.
Minimum magnitude displayed is 2.5.

Coastal Water Temperatures

Place Temperature
Eastport, ME 54.0 °F
Bar Harbor, ME 54.0 °F

Nearby Weather Stations